createdAt,value
2022-12-04T00:01:14.671Z,38.57
2022-12-04T00:03:42.487Z,40.53
2022-12-04T00:06:11.948Z,35.90
2022-12-04T00:08:40.428Z,37.10
2022-12-04T00:11:11.298Z,39.03
2022-12-04T00:13:40.096Z,39.13
2022-12-04T00:16:09.483Z,43.63
2022-12-04T00:18:38.853Z,40.83
2022-12-04T00:21:08.399Z,40.07
2022-12-04T00:23:37.451Z,41.37
2022-12-04T00:26:07.849Z,39.20
2022-12-04T00:28:38.010Z,40.53
2022-12-04T00:31:07.596Z,38.77
2022-12-04T00:33:35.865Z,39.23
2022-12-04T00:36:08.473Z,40.93
2022-12-04T00:38:36.993Z,40.67
2022-12-04T00:41:05.496Z,44.43
2022-12-04T00:43:33.493Z,40.20
2022-12-04T00:46:02.739Z,40.23
2022-12-04T00:48:30.629Z,39.03
2022-12-04T00:51:03.120Z,40.37
2022-12-04T00:53:30.900Z,41.40
2022-12-04T00:55:58.738Z,39.33
2022-12-04T00:58:26.562Z,39.70
2022-12-04T01:01:05.169Z,41.40
2022-12-04T01:03:33.432Z,41.37
2022-12-04T01:06:01.615Z,39.87
2022-12-04T01:08:29.461Z,42.47
2022-12-04T01:10:57.276Z,38.97
2022-12-04T01:13:25.901Z,44.17
2022-12-04T01:15:54.127Z,41.30
2022-12-04T01:18:23.466Z,40.43
2022-12-04T01:20:52.596Z,40.07
2022-12-04T01:23:22.107Z,40.53
2022-12-04T01:25:53.936Z,44.50
2022-12-04T01:28:21.997Z,44.03
2022-12-04T01:30:59.761Z,41.60
2022-12-04T01:33:29.398Z,41.87
2022-12-04T01:35:58.489Z,39.67
2022-12-04T01:38:27.091Z,40.77
2022-12-04T01:40:55.909Z,42.83
2022-12-04T01:43:24.677Z,39.80
2022-12-04T01:45:54.672Z,43.43
2022-12-04T01:48:30.690Z,40.63
2022-12-04T01:51:05.245Z,41.93
2022-12-04T01:53:34.356Z,42.63
2022-12-04T01:56:03.780Z,41.87
2022-12-04T01:58:37.278Z,41.93
2022-12-04T02:01:09.212Z,43.27
2022-12-04T02:03:39.693Z,39.67
2022-12-04T02:06:08.109Z,43.23
2022-12-04T02:08:37.162Z,43.57
2022-12-04T02:11:14.815Z,43.50
2022-12-04T02:13:51.386Z,42.70
2022-12-04T02:16:25.466Z,44.90
2022-12-04T02:19:02.494Z,47.40
2022-12-04T02:21:34.533Z,43.37
2022-12-04T02:24:24.683Z,46.17
2022-12-04T02:26:57.112Z,46.47
2022-12-04T02:29:35.327Z,42.33
2022-12-04T02:32:13.932Z,47.03
2022-12-04T02:34:46.213Z,43.53
2022-12-04T02:37:18.346Z,45.97
2022-12-04T02:39:53.419Z,47.83
2022-12-04T02:42:29.254Z,46.40
2022-12-04T02:45:03.545Z,44.33
2022-12-04T02:47:33.038Z,46.57
2022-12-04T02:50:04.087Z,44.97
2022-12-04T02:52:36.298Z,45.20
2022-12-04T02:55:08.941Z,47.33
2022-12-04T02:57:39.724Z,47.90
2022-12-04T03:00:10.880Z,46.13
2022-12-04T03:02:43.145Z,47.30
2022-12-04T03:05:14.044Z,45.83
2022-12-04T03:07:47.875Z,48.40
2022-12-04T03:10:21.006Z,50.47
2022-12-04T03:12:53.049Z,50.37
2022-12-04T03:15:27.728Z,51.00
2022-12-04T03:18:02.080Z,47.93
2022-12-04T03:20:32.611Z,47.23
2022-12-04T03:23:04.142Z,47.00
2022-12-04T03:25:37.084Z,49.13
2022-12-04T03:28:08.458Z,46.90
2022-12-04T03:30:42.661Z,47.60
2022-12-04T03:33:16.232Z,49.40
2022-12-04T03:35:50.546Z,49.40
2022-12-04T03:38:22.252Z,48.30
2022-12-04T03:40:58.576Z,49.67
2022-12-04T03:43:29.977Z,47.83
2022-12-04T03:46:04.385Z,47.00
2022-12-04T03:48:41.779Z,46.63
2022-12-04T03:51:15.363Z,45.87
2022-12-04T03:53:46.691Z,46.80
2022-12-04T03:56:18.890Z,45.10
2022-12-04T03:58:50.172Z,44.77
2022-12-04T04:01:23.825Z,46.17
2022-12-04T04:03:54.452Z,45.23
2022-12-04T04:06:25.990Z,47.57
2022-12-04T04:08:57.637Z,49.03
2022-12-04T04:11:29.630Z,48.20
2022-12-04T04:14:18.400Z,46.87
2022-12-04T04:17:10.822Z,46.47
2022-12-04T04:19:59.941Z,49.63
2022-12-04T04:22:47.755Z,45.70
2022-12-04T04:25:21.547Z,45.57
2022-12-04T04:27:52.998Z,48.20
2022-12-04T04:30:21.128Z,47.10
2022-12-04T04:32:59.266Z,48.27
2022-12-04T04:35:34.313Z,45.03
2022-12-04T04:38:10.635Z,49.73
2022-12-04T04:40:47.227Z,50.93
2022-12-04T04:43:20.529Z,47.47
2022-12-04T04:45:52.596Z,47.23
2022-12-04T04:48:27.025Z,46.90
2022-12-04T04:50:55.394Z,47.90
2022-12-04T04:53:28.437Z,50.17
2022-12-04T04:55:57.061Z,49.03
2022-12-04T04:58:24.918Z,49.13
2022-12-04T05:00:58.898Z,47.30
2022-12-04T05:03:28.935Z,46.13
2022-12-04T05:05:56.764Z,47.70
2022-12-04T05:08:24.822Z,48.87
2022-12-04T05:10:52.666Z,48.07
2022-12-04T05:13:21.600Z,45.40
2022-12-04T05:15:57.372Z,46.17
2022-12-04T05:18:25.346Z,48.93
2022-12-04T05:20:53.752Z,46.17
2022-12-04T05:23:22.077Z,50.37
2022-12-04T05:25:50.078Z,47.33
2022-12-04T05:28:18.610Z,48.20
2022-12-04T05:30:46.495Z,48.03
2022-12-04T05:33:14.321Z,48.93
2022-12-04T05:35:42.155Z,48.00
2022-12-04T05:38:11.295Z,47.73
2022-12-04T05:40:39.075Z,47.93
2022-12-04T05:43:06.954Z,47.03
2022-12-04T05:45:34.787Z,47.37
2022-12-04T05:48:02.612Z,49.70
2022-12-04T05:50:30.423Z,48.33
2022-12-04T05:52:58.185Z,47.23
2022-12-04T05:55:27.397Z,48.07
2022-12-04T05:57:55.174Z,50.63
2022-12-04T06:00:23.213Z,48.67
2022-12-04T06:02:51.044Z,47.47
2022-12-04T06:05:19.084Z,47.90
2022-12-04T06:07:47.041Z,46.73
2022-12-04T06:10:14.929Z,46.80
2022-12-04T06:12:44.088Z,49.00
2022-12-04T06:15:12.277Z,44.67
2022-12-04T06:17:40.088Z,48.20
2022-12-04T06:20:11.783Z,50.63
2022-12-04T06:22:40.017Z,45.57
2022-12-04T06:25:08.749Z,48.13
2022-12-04T06:27:36.611Z,49.27
2022-12-04T06:30:06.966Z,47.73
2022-12-04T06:32:34.816Z,45.20
2022-12-04T06:35:02.965Z,51.00
2022-12-04T06:37:30.792Z,50.73
2022-12-04T06:39:58.847Z,48.03
2022-12-04T06:42:27.347Z,44.67
2022-12-04T06:44:55.366Z,46.67
2022-12-04T06:47:24.544Z,47.97
2022-12-04T06:49:52.352Z,47.17
2022-12-04T06:52:20.220Z,50.37
2022-12-04T06:54:48.060Z,48.40
2022-12-04T06:57:15.932Z,44.93
2022-12-04T06:59:43.781Z,47.27
2022-12-04T07:02:12.329Z,46.57
2022-12-04T07:04:41.572Z,48.80
2022-12-04T07:07:09.888Z,52.07
2022-12-04T07:09:37.776Z,48.57
2022-12-04T07:12:06.267Z,46.47
2022-12-04T07:14:34.075Z,46.63
2022-12-04T07:17:02.017Z,48.43
2022-12-04T07:19:29.973Z,52.93
2022-12-04T07:21:59.074Z,48.23
2022-12-04T07:24:26.869Z,49.60
2022-12-04T07:26:54.693Z,46.17
2022-12-04T07:29:22.474Z,48.13
2022-12-04T07:31:50.558Z,46.07
2022-12-04T07:34:18.440Z,51.47
2022-12-04T07:36:46.230Z,49.17
2022-12-04T07:39:15.418Z,51.73
2022-12-04T07:41:43.254Z,49.40
2022-12-04T07:44:11.047Z,49.57
2022-12-04T07:46:38.859Z,48.33
2022-12-04T07:49:06.669Z,47.47
2022-12-04T07:51:34.541Z,49.57
2022-12-04T07:54:04.329Z,49.70
2022-12-04T07:56:34.443Z,50.93
2022-12-04T07:59:02.666Z,51.97
2022-12-04T08:01:30.910Z,50.03
2022-12-04T08:04:00.436Z,46.10
2022-12-04T08:06:33.370Z,49.30
2022-12-04T08:09:06.191Z,48.17
2022-12-04T08:11:38.937Z,49.37
2022-12-04T08:14:08.758Z,46.83
2022-12-04T08:16:36.611Z,48.67
2022-12-04T08:19:05.456Z,47.50
2022-12-04T08:21:34.037Z,46.20
2022-12-04T08:24:02.300Z,48.63
2022-12-04T08:26:31.910Z,51.87
2022-12-04T08:29:02.334Z,49.60
2022-12-04T08:31:32.862Z,47.47
2022-12-04T08:34:02.825Z,49.13
2022-12-04T08:36:31.023Z,45.93
2022-12-04T08:38:59.344Z,45.93
2022-12-04T08:41:28.194Z,43.80
2022-12-04T08:43:57.828Z,47.87
2022-12-04T08:46:28.958Z,46.07
2022-12-04T08:48:57.770Z,45.83
2022-12-04T08:51:27.589Z,45.07
2022-12-04T08:53:56.852Z,43.73
2022-12-04T08:56:25.793Z,44.70
2022-12-04T08:58:53.768Z,44.50
2022-12-04T09:01:21.659Z,45.33
2022-12-04T09:03:50.914Z,44.63
2022-12-04T09:06:19.374Z,46.90
2022-12-04T09:08:47.608Z,43.77
2022-12-04T09:11:18.357Z,46.60
2022-12-04T09:13:47.100Z,45.20
2022-12-04T09:16:17.589Z,45.83
2022-12-04T09:18:45.629Z,43.93
2022-12-04T09:21:16.554Z,45.40
2022-12-04T09:23:46.456Z,45.50
2022-12-04T09:26:21.607Z,44.63
2022-12-04T09:28:50.602Z,45.43
2022-12-04T09:31:19.577Z,43.70
2022-12-04T09:33:47.605Z,44.77
2022-12-04T09:36:17.597Z,43.97
2022-12-04T09:38:48.917Z,46.87
2022-12-04T09:41:31.051Z,43.77
2022-12-04T09:44:03.740Z,44.60
2022-12-04T09:46:37.658Z,48.77
2022-12-04T09:49:11.064Z,45.30
2022-12-04T09:51:42.873Z,44.13
2022-12-04T09:54:17.164Z,45.37
2022-12-04T09:56:49.515Z,47.50
2022-12-04T09:59:22.099Z,46.27
2022-12-04T10:01:52.783Z,44.40
2022-12-04T10:04:20.875Z,43.93
2022-12-04T10:06:58.117Z,46.63
2022-12-04T10:09:29.390Z,45.20
2022-12-04T10:12:03.673Z,44.97
2022-12-04T10:14:52.659Z,49.63
2022-12-04T10:17:46.038Z,47.50
2022-12-04T10:20:25.665Z,45.20
2022-12-04T10:23:02.148Z,45.37
2022-12-04T10:25:31.055Z,45.93
2022-12-04T10:28:03.700Z,45.90
2022-12-04T10:30:35.649Z,47.40
2022-12-04T10:33:15.541Z,48.17
2022-12-04T10:35:44.894Z,46.67
2022-12-04T10:38:24.079Z,42.93
2022-12-04T10:40:56.636Z,45.30
2022-12-04T10:43:32.461Z,42.87
2022-12-04T10:46:00.453Z,51.47
2022-12-04T10:48:35.893Z,44.67
2022-12-04T10:51:04.100Z,47.97
2022-12-04T10:53:38.010Z,44.33
2022-12-04T10:56:13.493Z,40.40
2022-12-04T10:58:41.799Z,45.37
2022-12-04T11:01:12.402Z,45.27
2022-12-04T11:03:40.771Z,41.57
2022-12-04T11:06:11.106Z,42.93
2022-12-04T11:08:43.426Z,43.70
2022-12-04T11:11:14.442Z,39.70
2022-12-04T11:13:42.971Z,41.67
2022-12-04T11:16:33.788Z,42.63
2022-12-04T11:19:01.657Z,45.03
2022-12-04T11:21:31.727Z,39.07
2022-12-04T11:24:00.929Z,42.87
2022-12-04T11:26:34.707Z,39.33
2022-12-04T11:29:03.203Z,40.37
2022-12-04T11:31:32.585Z,40.97
2022-12-04T11:34:03.790Z,39.20
2022-12-04T11:36:33.733Z,41.93
2022-12-04T11:39:15.661Z,37.77
2022-12-04T11:41:43.532Z,36.40
2022-12-04T11:44:25.196Z,32.70
2022-12-04T11:46:54.815Z,33.20
2022-12-04T11:49:23.467Z,29.03
2022-12-04T11:51:59.344Z,34.97
2022-12-04T11:54:34.712Z,36.00
2022-12-04T11:57:12.948Z,32.23
2022-12-04T12:00:03.708Z,32.73
2022-12-04T12:02:56.781Z,30.77
2022-12-04T12:05:43.840Z,31.80
2022-12-04T12:08:24.440Z,33.63
2022-12-04T12:11:02.310Z,30.40
2022-12-04T12:13:42.485Z,32.07
2022-12-04T12:16:18.131Z,32.97
2022-12-04T12:19:09.369Z,30.40
2022-12-04T12:21:46.984Z,31.47
2022-12-04T12:24:26.419Z,30.77
2022-12-04T12:27:05.938Z,33.17
2022-12-04T12:29:56.767Z,32.03
2022-12-04T12:32:37.478Z,31.13
2022-12-04T12:35:14.212Z,35.10
2022-12-04T12:37:48.177Z,30.43
2022-12-04T12:40:24.450Z,34.93
2022-12-04T12:42:58.782Z,35.73
2022-12-04T12:45:34.611Z,41.10
2022-12-04T12:48:14.836Z,36.67
2022-12-04T12:50:45.904Z,36.87
2022-12-04T12:53:19.156Z,33.73
2022-12-04T12:55:51.846Z,37.17
2022-12-04T12:58:29.304Z,33.50
2022-12-04T13:01:03.473Z,32.87
2022-12-04T13:03:39.450Z,33.10
2022-12-04T13:06:13.053Z,33.63
2022-12-04T13:08:49.286Z,33.10
2022-12-04T13:11:21.123Z,31.93
2022-12-04T13:13:55.499Z,30.33
2022-12-04T13:16:27.910Z,29.70
2022-12-04T13:19:06.332Z,30.00
2022-12-04T13:21:37.628Z,32.00
2022-12-04T13:24:38.331Z,33.17
2022-12-04T13:27:11.995Z,30.50
2022-12-04T13:29:56.446Z,32.77
2022-12-04T13:32:48.783Z,33.67
2022-12-04T13:35:26.986Z,31.43
2022-12-04T13:38:11.921Z,31.67
2022-12-04T13:40:42.087Z,31.10
2022-12-04T13:43:34.570Z,30.97
2022-12-04T13:46:06.438Z,30.77
2022-12-04T13:48:37.817Z,27.33
2022-12-04T13:51:21.603Z,27.20
2022-12-04T13:53:49.914Z,29.87
2022-12-04T13:56:26.781Z,26.50
2022-12-04T13:59:01.086Z,28.13
2022-12-04T14:01:38.683Z,28.53
2022-12-04T14:04:07.592Z,24.73
2022-12-04T14:06:38.526Z,26.67
2022-12-04T14:09:09.557Z,27.27
2022-12-04T14:11:46.518Z,26.33
2022-12-04T14:14:26.118Z,25.50
2022-12-04T14:16:56.954Z,24.40
2022-12-04T14:19:33.982Z,22.73
2022-12-04T14:22:02.445Z,23.63
2022-12-04T14:24:35.014Z,23.80
2022-12-04T14:27:11.807Z,21.63
2022-12-04T14:29:48.424Z,23.97
2022-12-04T14:32:22.390Z,21.53
2022-12-04T14:34:51.114Z,22.87
2022-12-04T14:37:24.526Z,20.23
2022-12-04T14:39:53.415Z,21.00
2022-12-04T14:42:26.549Z,22.43
2022-12-04T14:44:57.393Z,21.37
2022-12-04T14:47:43.617Z,20.07
2022-12-04T14:50:28.792Z,19.87
2022-12-04T14:53:04.682Z,19.43
2022-12-04T14:55:42.604Z,21.27
2022-12-04T14:58:34.263Z,21.37
2022-12-04T15:01:03.790Z,19.47
2022-12-04T15:03:37.903Z,22.03
2022-12-04T15:06:08.990Z,21.63
2022-12-04T15:08:37.040Z,19.73
2022-12-04T15:11:25.298Z,20.40
2022-12-04T15:13:53.188Z,22.73
2022-12-04T15:16:23.799Z,19.93
2022-12-04T15:18:57.042Z,18.27
2022-12-04T15:21:29.069Z,20.47
2022-12-04T15:23:57.134Z,20.47
2022-12-04T15:26:26.951Z,21.37
2022-12-04T15:28:58.712Z,20.60
2022-12-04T15:31:31.354Z,21.57
2022-12-04T15:34:04.178Z,21.77
2022-12-04T15:36:43.986Z,20.37
2022-12-04T15:39:16.732Z,21.47
2022-12-04T15:41:44.626Z,20.83
2022-12-04T15:44:29.849Z,22.63
2022-12-04T15:46:59.964Z,19.50
2022-12-04T15:49:30.967Z,20.27
2022-12-04T15:52:07.907Z,23.00
2022-12-04T15:54:37.116Z,26.07
2022-12-04T15:57:08.197Z,25.83
2022-12-04T15:59:36.716Z,23.00
2022-12-04T16:02:09.880Z,18.47
2022-12-04T16:04:45.299Z,22.43
2022-12-04T16:07:22.164Z,21.00
2022-12-04T16:10:01.042Z,20.50
2022-12-04T16:12:32.802Z,18.97
2022-12-04T16:15:00.982Z,22.10
2022-12-04T16:17:31.515Z,21.47
2022-12-04T16:20:01.569Z,20.70
2022-12-04T16:22:31.445Z,21.47
2022-12-04T16:24:59.692Z,21.37
2022-12-04T16:27:27.837Z,21.80
2022-12-04T16:29:55.613Z,22.50
2022-12-04T16:32:28.588Z,23.23
2022-12-04T16:34:56.858Z,23.17
2022-12-04T16:37:27.712Z,26.13
2022-12-04T16:39:55.538Z,28.03
2022-12-04T16:42:24.727Z,26.63
2022-12-04T16:44:52.965Z,24.23
2022-12-04T16:47:21.382Z,27.07
2022-12-04T16:49:51.082Z,27.20
2022-12-04T16:52:19.248Z,28.00
2022-12-04T16:54:48.455Z,27.23
2022-12-04T16:57:16.649Z,29.67
2022-12-04T16:59:44.474Z,32.43
2022-12-04T17:02:18.574Z,29.97
2022-12-04T17:04:46.406Z,29.80
2022-12-04T17:07:14.162Z,33.93
2022-12-04T17:09:41.958Z,30.87
2022-12-04T17:12:11.132Z,34.33
2022-12-04T17:14:39.506Z,31.83
2022-12-04T17:17:07.302Z,36.07
2022-12-04T17:19:35.087Z,34.93
2022-12-04T17:22:02.975Z,35.33
2022-12-04T17:24:30.736Z,34.23
2022-12-04T17:26:58.603Z,34.27
2022-12-04T17:29:27.811Z,32.47
2022-12-04T17:31:55.669Z,34.03
2022-12-04T17:34:23.587Z,34.50
2022-12-04T17:36:51.390Z,36.80
2022-12-04T17:39:19.633Z,34.90
2022-12-04T17:41:47.462Z,35.30
2022-12-04T17:44:15.291Z,34.97
2022-12-04T17:46:45.467Z,36.20
2022-12-04T17:49:13.487Z,38.53
2022-12-04T17:51:41.429Z,36.90
2022-12-04T17:54:09.405Z,35.10
2022-12-04T17:56:37.246Z,39.27
2022-12-04T17:59:06.758Z,39.00
2022-12-04T18:01:34.651Z,34.97
2022-12-04T18:04:06.234Z,35.07
2022-12-04T18:06:35.576Z,37.83
2022-12-04T18:09:04.472Z,41.10
2022-12-04T18:11:34.299Z,36.03
2022-12-04T18:14:10.086Z,35.03
2022-12-04T18:16:44.031Z,38.33
2022-12-04T18:19:13.930Z,36.77
2022-12-04T18:21:42.188Z,36.17
2022-12-04T18:24:10.432Z,35.90
2022-12-04T18:26:40.434Z,36.87
2022-12-04T18:29:08.732Z,36.40
2022-12-04T18:31:36.589Z,35.70
2022-12-04T18:34:06.643Z,36.87
2022-12-04T18:36:37.366Z,36.27
2022-12-04T18:39:08.353Z,37.10
2022-12-04T18:41:36.441Z,33.47
2022-12-04T18:44:04.948Z,37.03
2022-12-04T18:46:32.881Z,38.47
2022-12-04T18:49:01.418Z,35.97
2022-12-04T18:51:31.146Z,37.67
2022-12-04T18:54:02.970Z,36.73
2022-12-04T18:56:31.266Z,36.67
2022-12-04T18:59:00.165Z,34.83
2022-12-04T19:01:31.128Z,39.17
2022-12-04T19:04:00.886Z,38.53
2022-12-04T19:06:30.517Z,38.20
2022-12-04T19:09:02.290Z,38.03
2022-12-04T19:11:30.141Z,38.03
2022-12-04T19:13:58.906Z,35.07
2022-12-04T19:16:27.283Z,35.23
2022-12-04T19:18:55.133Z,37.23
2022-12-04T19:21:23.158Z,36.40
2022-12-04T19:23:54.824Z,36.47
2022-12-04T19:26:24.536Z,36.70
2022-12-04T19:28:53.692Z,37.93
2022-12-04T19:31:24.225Z,33.93
2022-12-04T19:33:53.024Z,35.43
2022-12-04T19:36:20.939Z,33.03
2022-12-04T19:38:48.897Z,35.00
2022-12-04T19:41:20.767Z,37.33
2022-12-04T19:43:52.755Z,33.37
2022-12-04T19:46:25.992Z,34.17
2022-12-04T19:48:56.858Z,31.07
2022-12-04T19:51:26.032Z,32.00
2022-12-04T19:53:55.502Z,34.20
2022-12-04T19:56:25.106Z,31.83
2022-12-04T19:58:57.115Z,31.30
2022-12-04T20:01:27.039Z,31.67
2022-12-04T20:03:55.449Z,33.27
2022-12-04T20:06:25.937Z,34.10
2022-12-04T20:08:55.870Z,34.80
2022-12-04T20:11:24.707Z,29.83
2022-12-04T20:13:55.645Z,31.87
2022-12-04T20:16:27.692Z,31.13
2022-12-04T20:18:55.940Z,31.43
2022-12-04T20:21:28.187Z,33.53
2022-12-04T20:23:56.052Z,29.17
2022-12-04T20:26:25.631Z,32.13
2022-12-04T20:28:57.069Z,29.43
2022-12-04T20:31:26.772Z,36.30
2022-12-04T20:33:56.219Z,32.77
2022-12-04T20:36:25.704Z,31.87
2022-12-04T20:38:55.296Z,29.47
2022-12-04T20:41:23.384Z,27.57
2022-12-04T20:43:51.677Z,30.23
2022-12-04T20:46:23.085Z,28.90
2022-12-04T20:48:53.457Z,30.03
2022-12-04T20:51:24.866Z,29.57
2022-12-04T20:53:54.123Z,32.83
2022-12-04T20:56:23.297Z,31.57
2022-12-04T20:58:51.148Z,31.73
2022-12-04T21:01:20.922Z,30.47
2022-12-04T21:03:48.986Z,34.77
2022-12-04T21:06:19.950Z,31.60
2022-12-04T21:08:57.205Z,37.70
2022-12-04T21:11:27.607Z,33.77
2022-12-04T21:14:15.113Z,35.37
2022-12-04T21:16:44.848Z,33.13
2022-12-04T21:19:14.224Z,33.57
2022-12-04T21:21:42.174Z,35.67
2022-12-04T21:24:12.665Z,34.00
2022-12-04T21:26:41.037Z,33.50
2022-12-04T21:29:09.142Z,33.83
2022-12-04T21:31:37.923Z,35.73
2022-12-04T21:34:09.368Z,35.97
2022-12-04T21:36:37.354Z,36.83
2022-12-04T21:39:05.691Z,35.47
2022-12-04T21:41:51.007Z,35.90
2022-12-04T21:44:20.526Z,34.63
2022-12-04T21:46:49.497Z,36.23
2022-12-04T21:49:19.995Z,38.80
2022-12-04T21:51:57.667Z,36.03
2022-12-04T21:54:26.411Z,41.73
2022-12-04T21:56:54.307Z,37.43
2022-12-04T21:59:22.269Z,40.97
2022-12-04T22:01:50.508Z,38.33
2022-12-04T22:04:19.960Z,38.53
2022-12-04T22:06:47.965Z,38.90
2022-12-04T22:09:16.707Z,38.07
2022-12-04T22:11:45.257Z,38.47
2022-12-04T22:14:13.909Z,37.73
2022-12-04T22:16:43.244Z,35.27
2022-12-04T22:19:12.584Z,36.87
2022-12-04T22:21:42.396Z,36.77
2022-12-04T22:24:11.401Z,35.10
2022-12-04T22:26:39.713Z,36.50
2022-12-04T22:29:34.255Z,37.90
2022-12-04T22:31:55.478Z,39.20
2022-12-04T22:34:23.286Z,37.40
2022-12-04T22:36:52.409Z,41.00
2022-12-04T22:39:20.289Z,39.73
2022-12-04T22:41:48.146Z,41.33
2022-12-04T22:44:15.941Z,39.03
2022-12-04T22:46:43.894Z,37.87
2022-12-04T22:49:11.686Z,44.10
2022-12-04T22:51:39.467Z,38.43
2022-12-04T22:54:12.536Z,41.53
2022-12-04T22:56:40.388Z,43.57
2022-12-04T22:59:08.178Z,43.63
2022-12-04T23:01:36.119Z,41.50
2022-12-04T23:04:04.975Z,45.10
2022-12-04T23:06:34.471Z,43.07
2022-12-04T23:09:04.745Z,40.67
2022-12-04T23:11:34.029Z,40.70
2022-12-04T23:14:03.573Z,45.83
2022-12-04T23:16:33.470Z,41.13
2022-12-04T23:19:01.291Z,41.43
2022-12-04T23:21:30.076Z,39.17
2022-12-04T23:23:58.176Z,42.93
2022-12-04T23:26:31.513Z,42.43
2022-12-04T23:29:01.628Z,40.77
2022-12-04T23:31:30.079Z,37.53
2022-12-04T23:33:58.144Z,42.77
2022-12-04T23:36:26.043Z,41.93
2022-12-04T23:38:53.882Z,40.13
2022-12-04T23:41:24.147Z,37.90
2022-12-04T23:43:53.797Z,38.03
2022-12-04T23:46:24.903Z,41.03
2022-12-04T23:48:52.736Z,37.60
2022-12-04T23:51:21.004Z,39.33
2022-12-04T23:53:50.831Z,40.90
2022-12-04T23:56:20.515Z,35.67
2022-12-04T23:58:50.046Z,38.23
